ADDS METAR Data INFO
IDs: Format: Raw Decoded Include TAF

Data at: 2213 UTC 24 Jun 2018

KHAO 242153Z AUTO 30006KT 10SM BKN047 27/19 A2998 RMK AO2 SLP146 T02720194
KHAO 242053Z AUTO 29007KT 10SM BKN048 BKN060 29/19 A2997 RMK AO2 SLP144 T02890189 58001
KHAO 241953Z AUTO 27005KT 10SM FEW046 FEW065 29/19 A2997 RMK AO2 SLP144 T02890194
KHAO 241853Z AUTO 25008KT 10SM SCT042 SCT060 29/19 A2997 RMK AO2 SLP145 T02890194
KHAO 241753Z AUTO 28007KT 10SM FEW042 SCT050 SCT060 28/19 A2997 RMK AO2 SLP145 T02780194 10278 20211 51006
KHAO 241653Z AUTO 31008KT 10SM BKN038 BKN047 27/19 A2996 RMK AO2 SLP140 T02670189
KHAO 241553Z AUTO 27008KT 10SM SCT037 27/19 A2997 RMK AO2 SLP144 T02670194
KHAO 241453Z AUTO VRB06KT 10SM FEW025 SCT034 SCT044 26/20 A2995 RMK AO2 SLP138 T02560200 53014
KHAO 241353Z AUTO 26007KT 10SM FEW021 SCT030 24/21 A2994 RMK AO2 SLP134 T02440206
KHAO 241253Z AUTO 23004KT 10SM CLR 23/20 A2991 RMK AO2 SLP125 T02330200
KHAO 241153Z AUTO 25004KT 10SM CLR 21/20 A2991 RMK AO2 SLP124 T02110200 10211 20172 51015
KHAO 241053Z AUTO 00000KT 4SM BR CLR 18/18 A2991 RMK AO2 SLP123 T01830183
KHAO 241039Z AUTO 00000KT 3SM BR CLR 17/17 A2990 RMK AO2 T01720172
KHAO 241030Z AUTO 00000KT 2SM BR CLR 18/18 A2990 RMK AO2 T01780178
KHAO 240953Z AUTO 00000KT 5SM BR FEW070 BKN085 18/18 A2988 RMK AO2 SLP116 T01780178
KHAO 240908Z AUTO 00000KT 3SM BR CLR 18/18 A2987 RMK AO2 T01780178
KHAO 240857Z AUTO 00000KT 1 1/2SM BR CLR 18/18 A2987 RMK AO2 T01780178
KHAO 240853Z AUTO 00000KT 5SM BR CLR 18/18 A2987 RMK AO2 SLP110 T01780178 58000
KHAO 240753Z AUTO 00000KT 4SM BR SCT080 19/18 A2987 RMK AO2 SLP109 T01890183
KHAO 240653Z AUTO 00000KT 8SM FEW055 19/19 A2987 RMK AO2 SLP111 T01890189
KHAO 240553Z AUTO 00000KT 10SM SCT060 19/19 A2987 RMK AO2 SLP110 T01940194 10250 20194 51010
KHAO 240453Z AUTO 00000KT 9SM CLR 19/19 A2986 RMK AO2 SLP108 T01940194 402670194
KHAO 240353Z AUTO 00000KT 9SM FEW075 20/19 A2985 RMK AO2 SLP105 T02000194
KHAO 240253Z AUTO 00000KT 10SM BKN075 OVC085 22/20 A2984 RMK AO2 SLP099 T02220200 53005
KHAO 240153Z AUTO 25003KT 10SM OVC080 23/19 A2983 RMK AO2 SLP096 T02330194
KHAO 240053Z AUTO 25003KT 10SM OVC075 24/19 A2982 RMK AO2 SLP092 T02390194
KHAO 232353Z AUTO 25006KT 10SM SCT075 25/19 A2982 RMK AO2 SLP093 60000 T02500194 10267 20233 53007
KHAO 232253Z AUTO 25005KT 10SM FEW037 OVC070 25/19 A2981 RMK AO2 SLP088 T02500194
KHAO 232153Z AUTO 25007KT 230V290 10SM OVC060 25/19 A2981 RMK AO2 SLP089 T02500189
KHAO 232053Z AUTO 23008KT 10SM SCT033 OVC065 26/19 A2980 RMK AO2 SLP086 60000 T02560194 56002
KHAO 231953Z AUTO 25006KT 10SM SCT029 BKN038 BKN047 25/19 A2980 RMK AO2 SLP086 T02500194
KHAO 231853Z AUTO VRB05KT 10SM FEW039 SCT055 OVC070 25/20 A2980 RMK AO2 RAB40E51 SLP087 P0000 T02500200
KHAO 231753Z AUTO 22007KT 10SM SCT027 BKN036 OVC065 24/19 A2981 RMK AO2 SLP088 60000 T02390194 10244 20211 50001
KHAO 231653Z AUTO VRB05KT 10SM SCT050 OVC060 24/20 A2981 RMK AO2 RAE05 SLP089 P0000 T02390200
KHAO 231607Z AUTO 25005KT 10SM SCT023 BKN048 OVC060 23/20 A2981 RMK AO2 RAE05 P0000 T02280200
KHAO 231553Z AUTO 25005KT 10SM -RA SCT020 BKN025 OVC060 22/19 A2981 RMK AO2 RAB47 SLP089 P0000 T02220194
KHAO 231516Z AUTO 26008KT 10SM FEW018 OVC036 23/20 A2980 RMK AO2 T02330200
KHAO 231506Z AUTO 27009KT 10SM SCT017 BKN027 OVC040 23/19 A2980 RMK AO2 T02280194
KHAO 231453Z AUTO 25010KT 10SM FEW015 BKN033 OVC070 23/19 A2980 RMK AO2 SLP087 T02280194 53008
KHAO 231421Z AUTO 23006KT 10SM BKN017 OVC070 22/19 A2980 RMK AO2 T02220189
KHAO 231353Z AUTO 24006KT 10SM FEW013 SCT032 OVC065 22/19 A2979 RMK AO2 SLP085 T02170189
KHAO 231253Z AUTO 22007KT 10SM FEW013 OVC033 22/19 A2978 RMK AO2 SLP081 T02170189
KHAO 231216Z AUTO 24006KT 10SM FEW011 BKN035 OVC042 21/19 A2978 RMK AO2 T02060189
KHAO 231153Z AUTO 23004KT 10SM FEW011 BKN027 OVC034 21/19 A2978 RMK AO2 SLP080 70014 T02060189 10217 20194 52015
KHAO 231133Z AUTO VRB04KT 10SM BKN023 BKN031 OVC043 20/19 A2978 RMK AO2 T02000189
KHAO 231102Z AUTO 22004KT 10SM FEW017 BKN030 OVC110 19/19 A2977 RMK AO2 T01940189
KHAO 231053Z AUTO 20005KT 10SM FEW011 BKN019 OVC030 20/19 A2976 RMK AO2 SLP075 T02000189
KHAO 231018Z AUTO 23006KT 10SM SCT016 BKN021 BKN039 20/19 A2976 RMK AO2 T02000189